Time;durP1;ratioP1;P1;durP2;ratioP2;P2;SDS_P1;SDS_P2;PMS_P1;PMS_P2;Temp;Humidity;BMP_temperature;BMP_pressure;BME280_temperature;BME280_humidity;BME280_pressure;Samples;Min_cycle;Max_cycle;Signal;HPM_P1;HPM_P2
2023/01/16 00:01:49;;;;;;;0.70;0.60;;;18.20;54.00;;;;;;5113361;28;20173;-54
2023/01/16 00:04:15;;;;;;;1.13;0.63;;;18.20;54.10;;;;;;5113147;28;20308;-55
2023/01/16 00:06:40;;;;;;;1.27;0.75;;;18.20;54.00;;;;;;5113279;28;20195;-56
2023/01/16 00:09:06;;;;;;;1.65;0.70;;;18.20;54.00;;;;;;5113870;28;20195;-53
2023/01/16 00:11:31;;;;;;;1.08;0.80;;;18.20;54.00;;;;;;5112681;28;20650;-52
2023/01/16 00:13:58;;;;;;;0.90;0.80;;;18.10;54.00;;;;;;5113210;28;20187;-53
2023/01/16 00:16:24;;;;;;;0.70;0.70;;;18.10;54.00;;;;;;5113476;28;20274;-51
2023/01/16 00:18:50;;;;;;;0.82;0.80;;;18.10;54.00;;;;;;5112639;28;20177;-53
2023/01/16 00:21:16;;;;;;;2.20;1.17;;;18.10;54.00;;;;;;5113684;28;20169;-51
2023/01/16 00:23:41;;;;;;;1.25;0.90;;;18.10;53.90;;;;;;5113034;28;20169;-49
2023/01/16 00:26:09;;;;;;;1.10;0.70;;;18.10;54.00;;;;;;5112669;28;20173;-49
2023/01/16 00:28:36;;;;;;;1.17;0.60;;;18.00;53.90;;;;;;5112940;28;20296;-53
2023/01/16 00:31:02;;;;;;;1.35;0.85;;;18.00;53.90;;;;;;5113557;28;20173;-54
2023/01/16 00:33:27;;;;;;;2.45;0.77;;;18.00;53.90;;;;;;5112819;28;20173;-56
2023/01/16 00:35:53;;;;;;;1.17;0.80;;;18.00;53.80;;;;;;5113243;28;20165;-54
2023/01/16 00:38:18;;;;;;;1.38;0.60;;;18.00;53.90;;;;;;5112642;28;20211;-57
2023/01/16 00:40:44;;;;;;;1.13;0.70;;;17.90;53.80;;;;;;5112972;28;20169;-56
2023/01/16 00:43:09;;;;;;;1.45;0.70;;;17.90;53.90;;;;;;5113454;28;20176;-57
2023/01/16 00:45:35;;;;;;;0.88;0.68;;;17.90;53.90;;;;;;5112042;28;20205;-55
2023/01/16 00:48:01;;;;;;;1.38;0.80;;;17.90;53.90;;;;;;5113376;28;20180;-50
2023/01/16 00:50:26;;;;;;;0.70;0.70;;;17.90;53.90;;;;;;5113405;28;20675;-55
2023/01/16 00:52:52;;;;;;;0.93;0.70;;;17.90;53.90;;;;;;5112110;28;20173;-48
2023/01/16 00:55:17;;;;;;;0.85;0.75;;;17.90;53.90;;;;;;5112934;28;20654;-53
2023/01/16 00:57:43;;;;;;;2.33;1.02;;;17.80;53.80;;;;;;5112938;28;20232;-55
2023/01/16 01:00:09;;;;;;;0.93;0.70;;;17.80;53.80;;;;;;5112595;28;20256;-51
2023/01/16 01:02:34;;;;;;;1.02;0.75;;;17.80;53.80;;;;;;5112942;28;20173;-53
2023/01/16 01:05:00;;;;;;;1.08;0.98;;;17.80;53.80;;;;;;5113363;28;20260;-53
2023/01/16 01:07:25;;;;;;;0.93;0.70;;;17.80;53.80;;;;;;5116516;28;20263;-51
2023/01/16 01:09:51;;;;;;;1.75;0.80;;;17.80;53.90;;;;;;5116768;28;20176;-52
2023/01/16 01:12:16;;;;;;;0.88;0.70;;;17.80;53.90;;;;;;5116989;28;20184;-53
2023/01/16 01:14:42;;;;;;;0.60;0.60;;;17.80;53.90;;;;;;5116179;28;20173;-52
2023/01/16 01:17:08;;;;;;;0.95;0.65;;;17.70;53.90;;;;;;5116831;28;20235;-51
2023/01/16 01:19:33;;;;;;;1.25;0.75;;;17.70;53.90;;;;;;5116748;28;20586;-54
2023/01/16 01:21:59;;;;;;;1.65;0.82;;;17.70;53.80;;;;;;5116280;28;20580;-54
2023/01/16 01:24:24;;;;;;;0.60;0.60;;;17.70;53.90;;;;;;5116806;28;20173;-54
2023/01/16 01:26:50;;;;;;;1.05;0.70;;;17.70;53.90;;;;;;5116457;28;20173;-52
2023/01/16 01:29:15;;;;;;;0.77;0.77;;;17.70;53.90;;;;;;5116206;28;20184;-55
2023/01/16 01:31:41;;;;;;;0.68;0.60;;;17.70;53.90;;;;;;5116517;28;20177;-55
2023/01/16 01:34:06;;;;;;;0.75;0.60;;;17.70;53.90;;;;;;5116635;28;20627;-55
2023/01/16 01:36:32;;;;;;;0.77;0.75;;;17.70;53.80;;;;;;5115510;28;20172;-55
2023/01/16 01:38:57;;;;;;;0.85;0.55;;;17.60;53.90;;;;;;5117006;28;20176;-56
2023/01/16 01:41:23;;;;;;;0.52;0.52;;;17.60;53.90;;;;;;5116440;28;20180;-56
2023/01/16 01:43:50;;;;;;;0.80;0.80;;;17.60;53.90;;;;;;5115590;28;20169;-53
2023/01/16 01:46:41;;;;;;;0.80;0.80;;;17.60;53.90;;;;;;5116321;28;20273;-56
2023/01/16 01:49:27;;;;;;;1.08;0.50;;;17.60;53.90;;;;;;5115758;28;20181;-49
2023/01/16 01:51:54;;;;;;;1.08;0.80;;;17.60;53.90;;;;;;5115933;28;20177;-52
2023/01/16 01:54:27;;;;;;;0.50;0.50;;;17.60;54.00;;;;;;5116393;28;20173;-55
2023/01/16 01:57:01;;;;;;;1.05;0.60;;;17.60;53.90;;;;;;5097064;28;20235;-53
2023/01/16 01:59:29;;;;;;;1.38;0.60;;;17.50;53.90;;;;;;5098177;28;20213;-53
2023/01/16 02:01:54;;;;;;;0.50;0.50;;;17.60;54.00;;;;;;5097544;28;20172;-55
2023/01/16 02:04:23;;;;;;;1.20;0.70;;;17.50;53.90;;;;;;5097087;28;20181;-56
2023/01/16 02:06:53;;;;;;;0.95;0.65;;;17.50;54.00;;;;;;5098131;28;20177;-53
2023/01/16 02:09:19;;;;;;;1.65;0.65;;;17.50;53.90;;;;;;5098643;28;20282;-51
2023/01/16 02:11:55;;;;;;;0.57;0.57;;;17.50;53.90;;;;;;5114916;28;20256;-54
2023/01/16 02:14:20;;;;;;;1.27;0.70;;;17.50;53.90;;;;;;5116019;28;20168;-53
2023/01/16 02:19:49;;;;;;;0.60;0.52;;;17.40;53.90;;;;;;5100187;28;20275;-57
2023/01/16 02:22:54;;;;;;;1.65;0.80;;;17.50;53.90;;;;;;5115964;28;20180;-51
2023/01/16 02:25:40;;;;;;;0.75;0.57;;;17.40;53.90;;;;;;5114944;28;20272;-52
2023/01/16 02:28:38;;;;;;;1.65;0.70;;;17.40;53.80;;;;;;5097404;28;20643;-49
2023/01/16 02:31:06;;;;;;;0.70;0.70;;;17.40;53.80;;;;;;5098045;28;20183;-53
2023/01/16 02:33:41;;;;;;;0.50;0.50;;;17.40;53.90;;;;;;5097085;28;20177;-55
2023/01/16 02:36:21;;;;;;;1.08;0.60;;;17.40;53.80;;;;;;5115310;28;20172;-56
2023/01/16 02:38:55;;;;;;;0.90;0.73;;;17.40;53.80;;;;;;5080167;28;20749;-54
2023/01/16 02:41:41;;;;;;;0.68;0.60;;;17.40;53.80;;;;;;5080929;28;20630;-55
2023/01/16 02:44:17;;;;;;;0.88;0.60;;;17.40;53.80;;;;;;5099661;28;20264;-55
2023/01/16 02:46:52;;;;;;;0.88;0.60;;;17.40;53.80;;;;;;5079801;28;20177;-55
2023/01/16 02:49:33;;;;;;;1.45;0.60;;;17.30;53.80;;;;;;5080801;28;20200;-55
2023/01/16 02:52:06;;;;;;;0.45;0.45;;;17.30;53.80;;;;;;5081170;28;20580;-54
2023/01/16 02:54:59;;;;;;;0.63;0.55;;;17.30;53.80;;;;;;5097374;28;20264;-54
2023/01/16 02:57:27;;;;;;;1.25;0.70;;;17.30;53.80;;;;;;5093029;28;20213;-56
2023/01/16 02:59:52;;;;;;;0.85;0.85;;;17.30;53.80;;;;;;5079270;28;20184;-53
2023/01/16 03:02:18;;;;;;;0.80;0.63;;;17.30;53.80;;;;;;5096774;28;20234;-53
2023/01/16 03:04:44;;;;;;;0.73;0.60;;;17.30;53.90;;;;;;5114435;28;20173;-56
2023/01/16 03:07:29;;;;;;;2.03;0.77;;;17.30;53.90;;;;;;5114287;28;20197;-55
2023/01/16 03:10:19;;;;;;;0.88;0.70;;;17.30;54.00;;;;;;5114513;28;20635;-58
2023/01/16 03:13:10;;;;;;;1.10;0.80;;;17.30;54.00;;;;;;5114481;28;20177;-56
2023/01/16 03:16:01;;;;;;;0.80;0.63;;;17.30;54.00;;;;;;5114381;28;20256;-56
2023/01/16 03:18:57;;;;;;;1.23;0.70;;;17.30;54.00;;;;;;5096533;28;20219;-56
2023/01/16 03:21:40;;;;;;;0.80;0.55;;;17.30;54.10;;;;;;5095767;28;20170;-56
2023/01/16 03:24:31;;;;;;;0.60;0.50;;;17.20;54.10;;;;;;5098565;28;20193;-56
2023/01/16 03:27:24;;;;;;;0.95;0.50;;;17.20;54.10;;;;;;5096289;28;20177;-56
2023/01/16 03:29:54;;;;;;;1.00;0.70;;;17.20;54.10;;;;;;5114049;28;20181;-54
2023/01/16 03:32:56;;;;;;;0.98;0.68;;;17.20;54.20;;;;;;5114528;28;20228;-56
2023/01/16 03:35:25;;;;;;;1.48;0.70;;;17.20;54.20;;;;;;5113629;28;20181;-56
2023/01/16 03:38:00;;;;;;;1.15;0.57;;;17.20;54.20;;;;;;5113850;28;20303;-57
2023/01/16 03:40:28;;;;;;;0.57;0.50;;;17.20;54.30;;;;;;5079731;28;20211;-57
2023/01/16 03:43:10;;;;;;;0.50;0.50;;;17.20;54.30;;;;;;5078415;28;20256;-57
2023/01/16 03:45:44;;;;;;;1.33;0.68;;;17.20;54.30;;;;;;5080866;28;20181;-56
2023/01/16 03:48:32;;;;;;;1.52;0.90;;;17.20;54.40;;;;;;5113971;28;20227;-56
2023/01/16 03:51:00;;;;;;;0.90;0.70;;;17.10;54.30;;;;;;5113938;28;20643;-53
2023/01/16 03:53:29;;;;;;;0.93;0.80;;;17.10;54.30;;;;;;5095857;28;20222;-54
2023/01/16 03:56:19;;;;;;;0.70;0.60;;;17.10;54.40;;;;;;5078188;28;20631;-55
2023/01/16 03:58:45;;;;;;;0.70;0.60;;;17.10;54.40;;;;;;5095400;28;20261;-49
2023/01/16 04:01:32;;;;;;;0.73;0.60;;;17.10;54.40;;;;;;5095598;28;20173;-54
2023/01/16 04:04:04;;;;;;;0.70;0.50;;;17.10;54.40;;;;;;5097938;28;20173;-55
2023/01/16 04:06:35;;;;;;;0.70;0.70;;;17.10;54.50;;;;;;5113676;28;20624;-54
2023/01/16 04:09:03;;;;;;;0.75;0.68;;;17.10;54.60;;;;;;5095871;28;20169;-56
2023/01/16 04:11:28;;;;;;;1.40;0.70;;;17.10;54.50;;;;;;5078084;28;20576;-53
2023/01/16 04:13:55;;;;;;;0.68;0.50;;;17.10;54.50;;;;;;5095099;28;20213;-54
2023/01/16 04:16:21;;;;;;;0.63;0.60;;;17.10;54.60;;;;;;5077808;28;20706;-54
2023/01/16 04:18:47;;;;;;;0.52;0.52;;;17.10;54.60;;;;;;5078467;28;20221;-53
2023/01/16 04:21:12;;;;;;;0.65;0.60;;;17.00;54.50;;;;;;5078610;28;20568;-55
2023/01/16 04:23:38;;;;;;;0.57;0.45;;;17.10;54.60;;;;;;5112563;28;20173;-49
2023/01/16 04:26:03;;;;;;;1.55;0.80;;;17.00;54.50;;;;;;5113610;28;20169;-52
2023/01/16 04:28:29;;;;;;;1.30;0.60;;;17.00;54.50;;;;;;5113437;28;20184;-51
2023/01/16 04:30:54;;;;;;;0.90;0.68;;;17.00;54.60;;;;;;5112343;28;20169;-55
2023/01/16 04:33:20;;;;;;;0.57;0.57;;;17.00;54.60;;;;;;5113310;28;20304;-56
2023/01/16 04:35:46;;;;;;;1.40;0.60;;;17.00;54.60;;;;;;5113300;28;20187;-56
2023/01/16 04:38:12;;;;;;;0.68;0.50;;;17.00;54.60;;;;;;5112529;28;20678;-57
2023/01/16 04:40:37;;;;;;;0.98;0.60;;;17.00;54.60;;;;;;5112337;28;20241;-54
2023/01/16 04:43:03;;;;;;;0.40;0.40;;;17.00;54.70;;;;;;5113548;28;20623;-55
2023/01/16 04:45:29;;;;;;;1.05;0.73;;;17.00;54.70;;;;;;5112790;28;20165;-55
2023/01/16 04:47:54;;;;;;;0.98;0.50;;;17.00;54.70;;;;;;5113125;28;20277;-55
2023/01/16 04:50:20;;;;;;;0.70;0.70;;;16.90;54.70;;;;;;5113344;28;20165;-56
2023/01/16 04:52:45;;;;;;;0.63;0.60;;;17.00;54.70;;;;;;5112010;28;20184;-52
2023/01/16 04:55:11;;;;;;;0.70;0.70;;;16.90;54.70;;;;;;5113327;28;20173;-52
2023/01/16 04:57:36;;;;;;;0.70;0.52;;;17.00;54.70;;;;;;5112992;28;20286;-53
2023/01/16 05:00:04;;;;;;;0.60;0.55;;;17.00;54.80;;;;;;5112776;28;20256;-56
2023/01/16 05:02:29;;;;;;;0.60;0.60;;;16.90;54.70;;;;;;5113180;28;20551;-55
2023/01/16 05:04:55;;;;;;;0.98;0.63;;;16.90;54.80;;;;;;5112742;28;20252;-54
2023/01/16 05:07:20;;;;;;;2.22;0.60;;;16.90;54.80;;;;;;5112300;28;20306;-54
2023/01/16 05:09:46;;;;;;;0.60;0.60;;;16.90;54.70;;;;;;5112540;28;20184;-53
2023/01/16 05:12:11;;;;;;;0.98;0.50;;;16.80;54.70;;;;;;5113174;28;20170;-54
2023/01/16 05:14:37;;;;;;;0.90;0.57;;;16.90;54.80;;;;;;5111893;28;20173;-55
2023/01/16 05:17:02;;;;;;;0.82;0.45;;;16.90;54.80;;;;;;5112838;28;20236;-55
2023/01/16 05:19:28;;;;;;;0.63;0.40;;;16.80;54.70;;;;;;5112963;28;20627;-54
2023/01/16 05:21:53;;;;;;;1.33;0.70;;;16.80;54.70;;;;;;5111715;28;20183;-57
2023/01/16 05:24:19;;;;;;;1.45;0.70;;;16.80;54.60;;;;;;5112768;28;20252;-56
2023/01/16 05:26:44;;;;;;;0.85;0.60;;;16.80;54.60;;;;;;5111793;28;20197;-56
2023/01/16 05:29:10;;;;;;;0.73;0.52;;;16.80;54.70;;;;;;5112777;28;20185;-56
2023/01/16 05:31:35;;;;;;;0.40;0.40;;;16.80;54.70;;;;;;5112318;28;20173;-56
2023/01/16 05:34:01;;;;;;;0.85;0.80;;;16.80;54.70;;;;;;5112136;28;20203;-56
2023/01/16 05:36:27;;;;;;;0.73;0.50;;;16.80;55.30;;;;;;5112750;28;20176;-57
2023/01/16 05:38:53;;;;;;;0.55;0.52;;;16.80;54.70;;;;;;5112474;28;20531;-56
2023/01/16 05:41:19;;;;;;;0.60;0.57;;;16.80;54.70;;;;;;5111875;28;20657;-56
2023/01/16 05:43:44;;;;;;;1.02;0.77;;;16.70;54.70;;;;;;5112383;28;20189;-57
2023/01/16 05:46:10;;;;;;;0.55;0.50;;;16.80;55.30;;;;;;5112851;28;20264;-56
2023/01/16 05:48:39;;;;;;;0.77;0.50;;;16.70;54.70;;;;;;5112038;28;20260;-57
2023/01/16 05:51:04;;;;;;;0.52;0.52;;;16.70;54.60;;;;;;5112628;28;20185;-54
2023/01/16 05:53:30;;;;;;;0.82;0.68;;;16.70;54.60;;;;;;5114989;28;20708;-55
2023/01/16 05:55:56;;;;;;;1.25;0.70;;;16.70;54.70;;;;;;5115773;28;20195;-55
2023/01/16 05:58:21;;;;;;;0.47;0.47;;;16.70;54.70;;;;;;5116273;28;20209;-56
2023/01/16 06:00:47;;;;;;;1.40;0.60;;;16.70;54.70;;;;;;5115901;28;20211;-54
2023/01/16 06:03:15;;;;;;;1.05;0.70;;;16.70;54.60;;;;;;5115501;28;20173;-56
2023/01/16 06:05:41;;;;;;;0.82;0.55;;;16.70;54.60;;;;;;5115989;28;20173;-56
2023/01/16 06:08:06;;;;;;;0.68;0.68;;;16.70;54.60;;;;;;5115934;28;20184;-56
2023/01/16 06:10:32;;;;;;;0.60;0.60;;;16.70;54.70;;;;;;5115245;28;20260;-55
2023/01/16 06:12:57;;;;;;;0.90;0.77;;;16.70;54.70;;;;;;5116083;28;20260;-54
2023/01/16 06:15:23;;;;;;;1.40;0.80;;;16.60;54.60;;;;;;5115812;28;20165;-54
2023/01/16 06:17:52;;;;;;;0.60;0.60;;;16.70;54.60;;;;;;5114789;28;20295;-55
2023/01/16 06:20:17;;;;;;;1.27;0.57;;;16.70;54.70;;;;;;5115999;28;20172;-54
2023/01/16 06:22:43;;;;;;;1.27;0.88;;;16.70;54.70;;;;;;5115286;28;20168;-55
2023/01/16 06:25:09;;;;;;;0.88;0.50;;;16.70;54.70;;;;;;5115216;28;20260;-56
2023/01/16 06:27:34;;;;;;;0.98;0.70;;;16.60;54.60;;;;;;5115384;28;20698;-56
2023/01/16 06:30:00;;;;;;;1.10;0.50;;;16.60;54.60;;;;;;5115116;28;20169;-55
2023/01/16 06:32:25;;;;;;;1.25;0.68;;;16.60;54.60;;;;;;5115642;28;20627;-57
2023/01/16 06:34:51;;;;;;;1.33;0.68;;;16.60;54.60;;;;;;5115207;28;20169;-57
2023/01/16 06:37:16;;;;;;;0.75;0.60;;;16.60;54.60;;;;;;5114615;28;20919;-57
2023/01/16 06:39:42;;;;;;;0.80;0.60;;;16.60;54.60;;;;;;5115023;28;20615;-58
2023/01/16 06:42:09;;;;;;;1.52;0.77;;;16.60;54.50;;;;;;5115305;28;20173;-57
2023/01/16 06:44:34;;;;;;;0.70;0.57;;;16.60;54.50;;;;;;5114342;28;20584;-54
2023/01/16 06:47:00;;;;;;;1.05;0.70;;;16.60;54.60;;;;;;5115170;28;20169;-54
2023/01/16 06:49:26;;;;;;;0.60;0.55;;;16.60;54.60;;;;;;5115159;28;20177;-52
2023/01/16 06:51:51;;;;;;;0.95;0.73;;;16.60;54.50;;;;;;5114222;28;20215;-53
2023/01/16 06:54:17;;;;;;;0.60;0.60;;;16.50;54.50;;;;;;5115275;28;20172;-53
2023/01/16 06:56:42;;;;;;;1.00;0.68;;;16.50;54.50;;;;;;5114894;28;20169;-54
2023/01/16 06:59:08;;;;;;;0.60;0.60;;;16.50;54.50;;;;;;5114352;28;20239;-52
2023/01/16 07:01:34;;;;;;;0.70;0.70;;;16.50;54.50;;;;;;5114555;28;20661;-56
2023/01/16 07:03:59;;;;;;;0.70;0.70;;;16.50;55.10;;;;;;5114508;28;20264;-55
2023/01/16 07:06:25;;;;;;;0.65;0.65;;;16.60;54.40;;;;;;5114029;28;20650;-55
2023/01/16 07:08:50;;;;;;;1.20;0.70;;;16.60;54.30;;;;;;5114661;28;20282;-52
2023/01/16 07:11:16;;;;;;;1.02;0.70;;;16.60;54.30;;;;;;5114563;28;20224;-54
2023/01/16 07:13:42;;;;;;;0.57;0.55;;;16.60;54.20;;;;;;5113666;28;20202;-54
2023/01/16 07:24:24;;;;;;;1.23;0.65;;;16.60;54.10;;;;;;5085017;28;20238;-53
2023/01/16 07:26:52;;;;;;;1.27;0.77;;;16.60;54.10;;;;;;5095305;28;20173;-51
2023/01/16 07:29:17;;;;;;;0.75;0.70;;;16.60;54.10;;;;;;5096167;28;20238;-50
2023/01/16 07:31:43;;;;;;;1.38;0.88;;;16.50;54.10;;;;;;5114448;28;20177;-55
2023/01/16 07:34:08;;;;;;;0.82;0.60;;;16.60;54.20;;;;;;5095533;28;20173;-50
2023/01/16 07:36:34;;;;;;;1.70;0.60;;;16.50;54.20;;;;;;5114100;28;20201;-54
2023/01/16 07:38:59;;;;;;;0.70;0.68;;;16.50;54.10;;;;;;5096879;28;20202;-69
2023/01/16 07:41:25;;;;;;;7.00;0.90;;;16.50;54.20;;;;;;5093774;28;20170;-70
2023/01/16 07:43:50;;;;;;;2.60;0.57;;;16.50;54.80;;;;;;5094322;28;20189;-64
2023/01/16 07:46:16;;;;;;;1.60;0.80;;;16.50;54.90;;;;;;5093713;28;20181;-65
2023/01/16 07:48:42;;;;;;;3.20;0.90;;;16.50;54.60;;;;;;5092775;28;20185;-69
2023/01/16 07:51:07;;;;;;;1.08;0.70;;;16.50;54.90;;;;;;5093663;28;20532;-75
2023/01/16 07:53:33;;;;;;;1.90;0.95;;;16.50;55.30;;;;;;5093303;28;20169;-69
2023/01/16 07:56:00;;;;;;;5.13;0.60;;;16.50;54.70;;;;;;5092857;28;20666;-65
2023/01/16 07:58:26;;;;;;;2.03;0.93;;;16.50;55.00;;;;;;5093412;28;20212;-66
2023/01/16 08:00:52;;;;;;;3.50;0.90;;;16.50;54.50;;;;;;5093217;28;20178;-66
2023/01/16 08:03:18;;;;;;;2.35;1.20;;;16.50;54.50;;;;;;5092721;28;20239;-68
2023/01/16 08:05:44;;;;;;;2.22;0.75;;;16.50;54.50;;;;;;5093155;28;20173;-66
2023/01/16 08:08:10;;;;;;;2.85;1.00;;;16.50;55.10;;;;;;5093599;28;20193;-65
2023/01/16 08:10:35;;;;;;;1.15;0.80;;;16.50;54.50;;;;;;5092292;28;20256;-66
2023/01/16 08:13:01;;;;;;;2.17;0.90;;;16.50;54.50;;;;;;5093250;28;20586;-65
2023/01/16 08:15:26;;;;;;;1.42;0.70;;;16.50;54.50;;;;;;5092385;28;20169;-68
2023/01/16 08:17:52;;;;;;;3.72;0.77;;;16.50;54.40;;;;;;5092738;28;20573;-69
2023/01/16 08:20:17;;;;;;;5.85;1.08;;;16.50;54.90;;;;;;5093342;28;20273;-70
2023/01/16 08:22:47;;;;;;;2.13;0.80;;;16.50;55.10;;;;;;5092140;28;20662;-70
2023/01/16 08:25:13;;;;;;;3.47;1.00;;;16.50;54.80;;;;;;5093005;28;20178;-70
2023/01/16 08:27:39;;;;;;;3.08;0.80;;;16.50;55.30;;;;;;5092619;28;20572;-69
2023/01/16 08:30:05;;;;;;;2.05;1.25;;;16.40;54.70;;;;;;5092276;28;20177;-72
2023/01/16 08:32:31;;;;;;;3.95;0.75;;;16.40;54.70;;;;;;5092958;28;20177;-71
2023/01/16 08:34:57;;;;;;;3.08;0.93;;;16.40;54.80;;;;;;5092995;28;20204;-70
2023/01/16 08:37:22;;;;;;;4.32;0.85;;;16.40;54.90;;;;;;5092243;28;20213;-69
2023/01/16 08:39:48;;;;;;;2.13;0.80;;;16.40;54.90;;;;;;5092725;28;20198;-70
2023/01/16 08:53:14;;;;;;;4.78;0.80;;;16.50;55.30;;;;;;5091932;28;20200;-68
2023/01/16 08:55:40;;;;;;;2.75;0.80;;;16.60;55.30;;;;;;5092576;28;20169;-71
2023/01/16 08:58:05;;;;;;;1.63;0.88;;;16.60;55.90;;;;;;5092009;28;20226;-70
2023/01/16 09:00:31;;;;;;;2.28;0.90;;;16.70;55.50;;;;;;5092665;28;20248;-71
2023/01/16 09:02:59;;;;;;;2.47;0.70;;;16.70;55.50;;;;;;5091403;28;20636;-71
2023/01/16 09:05:25;;;;;;;1.65;0.82;;;16.70;55.40;;;;;;5092245;28;20215;-71
2023/01/16 09:07:50;;;;;;;2.13;0.90;;;16.80;55.50;;;;;;5092526;28;20181;-71
2023/01/16 09:10:16;;;;;;;3.38;0.80;;;16.70;55.50;;;;;;5092817;28;20173;-70
2023/01/16 09:15:26;;;;;;;1.17;0.73;;;16.70;55.50;;;;;;5092406;28;20180;-73
2023/01/16 09:17:51;;;;;;;2.55;0.82;;;16.70;55.50;;;;;;5092167;28;20210;-70
2023/01/16 09:20:17;;;;;;;2.80;1.02;;;16.70;55.60;;;;;;5092150;28;20174;-73
2023/01/16 09:22:42;;;;;;;2.83;1.02;;;16.70;55.60;;;;;;5092269;28;20173;-72
2023/01/16 09:25:08;;;;;;;1.17;0.70;;;16.70;55.60;;;;;;5092652;28;20201;-70
2023/01/16 09:27:34;;;;;;;1.30;0.70;;;16.70;55.60;;;;;;5094385;28;20257;-73
2023/01/16 09:29:59;;;;;;;1.27;0.60;;;16.70;55.60;;;;;;5096371;28;20234;-70
2023/01/16 09:32:25;;;;;;;0.63;0.63;;;16.70;55.60;;;;;;5096415;28;20256;-75
2023/01/16 09:34:50;;;;;;;1.05;0.95;;;16.80;55.70;;;;;;5095574;28;20224;-71
2023/01/16 09:37:16;;;;;;;0.65;0.60;;;16.80;56.30;;;;;;5096365;28;20677;-71
2023/01/16 09:39:42;;;;;;;0.85;0.75;;;16.80;55.60;;;;;;5096017;28;20632;-71
2023/01/16 09:44:59;;;;;;;0.85;0.70;;;16.70;55.50;;;;;;5095835;28;20189;-69
2023/01/16 09:47:24;;;;;;;1.00;0.60;;;16.70;55.60;;;;;;5077203;28;20170;-70
2023/01/16 09:49:53;;;;;;;1.73;1.00;;;16.70;55.50;;;;;;5094398;28;20181;-69
2023/01/16 10:00:57;;;;;;;1.13;0.80;;;16.70;55.50;;;;;;5094389;28;20265;-70
2023/01/16 10:03:23;;;;;;;1.05;0.88;;;16.70;55.40;;;;;;5077605;28;20632;-71
2023/01/16 10:06:21;;;;;;;1.38;0.80;;;16.70;55.50;;;;;;5095792;28;20181;-72
2023/01/16 10:08:56;;;;;;;1.15;0.80;;;16.70;55.40;;;;;;5060578;28;20209;-70
2023/01/16 10:11:41;;;;;;;2.38;0.90;;;16.70;55.50;;;;;;5094593;28;20218;-72
2023/01/16 10:14:28;;;;;;;1.65;0.80;;;16.70;55.40;;;;;;5094440;28;20178;-71
2023/01/16 10:17:00;;;;;;;0.82;0.70;;;16.70;55.50;;;;;;5094235;28;20225;-71
2023/01/16 10:19:44;;;;;;;1.90;1.02;;;16.60;56.10;;;;;;5094323;28;20186;-74
2023/01/16 10:22:34;;;;;;;0.73;0.70;;;16.60;55.50;;;;;;5076695;28;20180;-71
2023/01/16 10:25:18;;;;;;;1.15;0.90;;;16.70;55.60;;;;;;5094538;28;20231;-71
2023/01/16 10:28:08;;;;;;;1.52;0.77;;;16.70;55.60;;;;;;5093658;28;20655;-72
2023/01/16 10:30:44;;;;;;;1.52;1.10;;;16.70;55.50;;;;;;5094133;28;20174;-73
2023/01/16 10:33:13;;;;;;;0.77;0.77;;;16.70;55.50;;;;;;5077499;28;20256;-72
2023/01/16 10:35:43;;;;;;;0.77;0.70;;;16.70;55.60;;;;;;5093905;28;20197;-71
2023/01/16 10:38:43;;;;;;;1.30;0.60;;;16.70;55.50;;;;;;5092447;28;20270;-71
2023/01/16 10:49:34;;;;;;;0.80;0.70;;;16.60;56.10;;;;;;5093630;28;20254;-71
2023/01/16 10:52:01;;;;;;;0.75;0.70;;;16.60;55.40;;;;;;5094300;28;20190;-70
2023/01/16 10:54:27;;;;;;;1.35;0.98;;;16.70;55.50;;;;;;5094970;28;20250;-70
2023/01/16 10:56:52;;;;;;;1.83;0.70;;;16.70;55.50;;;;;;5101014;28;20180;-64
2023/01/16 10:59:18;;;;;;;2.40;0.80;;;16.80;55.40;;;;;;5095617;28;20643;-65
2023/01/16 11:01:43;;;;;;;0.68;0.60;;;16.90;55.30;;;;;;5079080;28;20194;-64
2023/01/16 11:04:12;;;;;;;1.30;0.70;;;17.00;55.20;;;;;;5096091;28;20169;-65
2023/01/16 11:06:40;;;;;;;0.63;0.50;;;17.30;55.00;;;;;;5113403;28;20260;-64
2023/01/16 11:09:14;;;;;;;1.65;0.70;;;17.50;54.70;;;;;;5114533;28;20173;-63
2023/01/16 11:20:23;;;;;;;2.00;0.70;;;18.40;53.00;;;;;;5111180;28;20230;-64
2023/01/16 11:22:59;;;;;;;0.60;0.60;;;18.50;52.80;;;;;;5095052;28;20173;-64
2023/01/16 11:25:28;;;;;;;0.90;0.57;;;18.60;52.70;;;;;;5094380;28;20588;-64
2023/01/16 11:27:55;;;;;;;1.05;0.82;;;18.70;52.50;;;;;;5078541;28;20623;-65
2023/01/16 11:30:42;;;;;;;0.60;0.47;;;18.70;52.40;;;;;;5111427;28;20173;-65
2023/01/16 11:33:16;;;;;;;0.90;0.63;;;18.80;52.30;;;;;;5111336;28;20639;-65
2023/01/16 11:35:44;;;;;;;1.00;0.63;;;18.90;52.30;;;;;;5114216;28;20217;-65
2023/01/16 11:38:12;;;;;;;0.57;0.50;;;19.00;52.10;;;;;;5095881;28;20742;-64
2023/01/16 11:40:46;;;;;;;1.00;0.77;;;19.00;52.00;;;;;;5075726;28;20169;-70
2023/01/16 11:46:05;;;;;;;1.48;0.70;;;19.10;51.90;;;;;;5078236;28;20639;-70
2023/01/16 11:48:44;;;;;;;0.95;0.50;;;19.10;51.70;;;;;;5075852;28;20212;-71
2023/01/16 11:51:15;;;;;;;1.13;0.60;;;19.10;51.70;;;;;;5113082;28;20659;-71
2023/01/16 11:53:41;;;;;;;2.17;0.70;;;19.10;51.50;;;;;;5113087;28;20210;-71
2023/01/16 11:56:21;;;;;;;1.58;0.57;;;19.10;51.50;;;;;;5078596;28;20173;-71
2023/01/16 11:59:15;;;;;;;0.60;0.60;;;19.10;51.70;;;;;;5113580;28;20269;-71
2023/01/16 12:02:19;;;;;;;0.60;0.57;;;19.10;51.60;;;;;;5112949;28;20527;-70
2023/01/16 12:08:05;;;;;;;0.60;0.40;;;19.00;51.80;;;;;;5112726;28;20221;-70
2023/01/16 12:10:54;;;;;;;0.70;0.70;;;19.00;51.70;;;;;;5113406;28;20206;-71
2023/01/16 12:16:38;;;;;;;0.63;0.50;;;19.10;51.60;;;;;;5101247;28;20227;-74
2023/01/16 12:19:21;;;;;;;0.80;0.70;;;19.20;51.50;;;;;;5113348;28;20213;-78
2023/01/16 12:21:56;;;;;;;1.52;0.50;;;19.30;51.50;;;;;;5113497;28;20271;-77
2023/01/16 12:24:28;;;;;;;1.40;0.60;;;19.30;51.50;;;;;;5096503;28;20260;-73
2023/01/16 12:27:28;;;;;;;1.05;0.70;;;19.30;51.50;;;;;;5095105;28;20256;-64
2023/01/16 12:30:09;;;;;;;0.85;0.43;;;19.30;51.50;;;;;;5081272;28;20177;-66
2023/01/16 12:33:11;;;;;;;0.75;0.43;;;19.30;51.50;;;;;;5096490;28;20184;-67
2023/01/16 12:35:58;;;;;;;2.15;0.70;;;19.40;51.30;;;;;;5096886;28;20188;-66
2023/01/16 12:38:28;;;;;;;2.05;0.88;;;19.40;51.30;;;;;;5113556;28;20266;-63
2023/01/16 12:44:19;;;;;;;1.65;0.60;;;19.40;51.50;;;;;;5112687;28;20176;-66
2023/01/16 12:46:55;;;;;;;0.85;0.43;;;19.50;51.50;;;;;;5112868;28;20192;-65
2023/01/16 12:49:42;;;;;;;2.70;0.60;;;19.40;51.50;;;;;;5094843;28;20226;-69
2023/01/16 12:52:45;;;;;;;0.68;0.40;;;19.50;51.50;;;;;;5112373;28;20188;-66
2023/01/16 12:55:25;;;;;;;0.80;0.50;;;19.40;51.60;;;;;;5113302;28;20172;-65
2023/01/16 12:58:05;;;;;;;2.53;0.75;;;19.40;51.70;;;;;;5094079;28;20247;-65
2023/01/16 13:00:36;;;;;;;5.32;1.20;;;19.40;51.50;;;;;;5094777;28;20173;-67
2023/01/16 13:03:24;;;;;;;0.82;0.40;;;19.50;51.40;;;;;;5082484;28;20176;-65
2023/01/16 13:05:49;;;;;;;1.38;0.32;;;19.50;51.30;;;;;;5098321;28;20509;-65
2023/01/16 13:08:24;;;;;;;1.15;0.38;;;19.50;51.30;;;;;;5099193;28;20201;-65
2023/01/16 13:14:10;;;;;;;2.20;0.60;;;19.50;51.40;;;;;;5116928;28;20277;-66
2023/01/16 13:16:54;;;;;;;0.70;0.60;;;19.50;51.40;;;;;;5044770;28;20217;-66
2023/01/16 13:19:24;;;;;;;0.20;0.20;;;19.40;51.40;;;;;;5098173;28;20192;-66
2023/01/16 13:22:20;;;;;;;1.15;0.60;;;19.30;51.50;;;;;;5098873;28;20256;-65
2023/01/16 13:24:53;;;;;;;0.70;0.40;;;19.20;51.60;;;;;;5057186;28;20265;-66
2023/01/16 13:27:22;;;;;;;1.48;0.35;;;19.00;51.90;;;;;;5098001;28;20177;-66
2023/01/16 13:29:55;;;;;;;0.85;0.50;;;18.90;52.10;;;;;;5098643;28;20177;-65
2023/01/16 13:32:30;;;;;;;1.38;0.65;;;18.80;52.20;;;;;;5098841;28;20623;-66
2023/01/16 13:35:04;;;;;;;2.55;0.25;;;18.80;52.40;;;;;;5098735;28;20201;-66
2023/01/16 13:37:51;;;;;;;0.73;0.43;;;18.80;52.40;;;;;;5116746;28;20234;-66
2023/01/16 13:40:28;;;;;;;1.38;0.38;;;18.80;52.50;;;;;;5099323;28;20173;-66
2023/01/16 13:45:47;;;;;;;0.50;0.38;;;18.80;52.40;;;;;;5116502;28;20222;-66
2023/01/16 13:45:48;;;;;;;0.45;0.45;;;18.80;52.30;;;;;;5101020;28;20239;-65
2023/01/16 13:48:17;;;;;;;3.60;0.50;;;18.80;52.40;;;;;;5097700;28;20729;-67
2023/01/16 13:50:48;;;;;;;1.30;0.55;;;18.80;52.40;;;;;;5116227;28;20181;-67
2023/01/16 13:53:14;;;;;;;0.75;0.52;;;18.80;52.30;;;;;;5098561;28;20541;-67
2023/01/16 13:55:42;;;;;;;1.00;0.50;;;18.90;52.30;;;;;;5116318;28;20635;-67
2023/01/16 13:58:09;;;;;;;1.35;0.40;;;18.90;52.30;;;;;;5098666;28;20213;-67
2023/01/16 14:00:35;;;;;;;1.08;0.57;;;19.00;52.30;;;;;;5115638;28;20175;-68
2023/01/16 14:03:17;;;;;;;0.60;0.40;;;18.90;52.20;;;;;;5098110;28;20169;-67
2023/01/16 14:05:43;;;;;;;0.65;0.50;;;19.00;52.30;;;;;;5098320;28;20169;-67
2023/01/16 14:11:22;;;;;;;0.40;0.40;;;19.00;52.20;;;;;;5100970;28;20738;-67
2023/01/16 14:14:07;;;;;;;2.35;0.40;;;19.00;52.20;;;;;;5096153;28;20222;-68
2023/01/16 14:16:37;;;;;;;0.60;0.50;;;19.00;52.30;;;;;;5114614;28;20265;-68
2023/01/16 14:19:21;;;;;;;1.58;0.50;;;19.00;52.20;;;;;;5116056;28;20212;-68